Time;durP1;ratioP1;P1;durP2;ratioP2;P2;SDS_P1;SDS_P2;PMS_P1;PMS_P2;Temp;Humidity;BMP_temperature;BMP_pressure;BME280_temperature;BME280_humidity;BME280_pressure;Samples;Min_cycle;Max_cycle;Signal;HPM_P1;HPM_P2
2024/03/18 06:41:53;;;;;;;6.32;4.47;;;;;;;;;;10503850;28;20767;-85
2024/03/18 06:46:54;;;;;;;;;;;;;;;;;;10502437;28;20036;-85
2024/03/18 06:51:55;;;;;;;3.20;2.47;;;;;;;;;;10502787;28;20391;-85
2024/03/18 06:56:56;;;;;;;3.60;3.13;;;;;;;;;;10505123;28;20107;-85
2024/03/18 07:01:57;;;;;;;;;;;;;;;;;;10505031;28;20048;-85
2024/03/18 07:06:58;;;;;;;5.80;4.40;;;;;;;;;;10501774;28;19904;-84
2024/03/18 07:11:59;;;;;;;;;;;;;;;;;;10503153;28;20063;-83
2024/03/18 07:17:00;;;;;;;3.67;2.30;;;;;;;;;;10513224;28;20004;-84
2024/03/18 07:22:02;;;;;;;;;;;;;;;;;;10503512;28;20032;-83
2024/03/18 07:27:03;;;;;;;6.38;5.47;;;;;;;;;;10504082;28;19928;-84
2024/03/18 07:32:04;;;;;;;5.93;4.63;;;;;;;;;;10500694;28;20025;-83
2024/03/18 07:37:05;;;;;;;4.90;3.38;;;;;;;;;;10503125;28;20538;-85
2024/03/18 07:42:06;;;;;;;2.85;2.33;;;;;;;;;;10503792;28;20107;-85
2024/03/18 07:47:08;;;;;;;6.57;5.97;;;;;;;;;;10504173;28;20104;-85
2024/03/18 07:52:09;;;;;;;9.73;7.93;;;;;;;;;;10505140;28;20032;-84
2024/03/18 07:57:10;;;;;;;7.75;6.72;;;;;;;;;;10500592;28;20040;-84
2024/03/18 08:02:11;;;;;;;2.85;1.92;;;;;;;;;;10471471;28;20092;-82
2024/03/18 08:07:12;;;;;;;3.45;2.40;;;;;;;;;;10470339;28;20021;-81
2024/03/18 08:12:13;;;;;;;5.40;4.90;;;;;;;;;;10469876;28;20020;-83
2024/03/18 08:17:14;;;;;;;5.47;3.58;;;;;;;;;;10470370;28;20025;-79
2024/03/18 08:22:18;;;;;;;5.43;3.92;;;;;;;;;;10468045;28;20068;-79
2024/03/18 08:27:19;;;;;;;5.25;4.10;;;;;;;;;;10467375;28;20032;-79
2024/03/18 08:32:20;;;;;;;5.43;4.22;;;;;;;;;;10468975;28;20051;-79
2024/03/18 08:37:21;;;;;;;8.80;6.93;;;;;;;;;;10469685;28;20037;-80
2024/03/18 08:42:22;;;;;;;9.23;8.02;;;;;;;;;;10470074;28;20119;-79
2024/03/18 08:47:23;;;;;;;4.95;3.97;;;;;;;;;;10469192;28;20028;-79
2024/03/18 08:52:25;;;;;;;6.97;4.53;;;;;;;;;;10471329;28;20025;-79
2024/03/18 08:57:26;;;;;;;6.03;5.20;;;;;;;;;;10475559;28;20044;-79
2024/03/18 09:02:27;;;;;;;5.47;4.80;;;;;;;;;;10476223;28;20052;-79
2024/03/18 09:07:29;;;;;;;7.90;7.10;;;;;;;;;;10480456;28;20081;-79
2024/03/18 09:12:30;;;;;;;8.45;6.22;;;;;;;;;;10480043;28;20112;-80
2024/03/18 09:17:31;;;;;;;16.35;13.25;;;;;;;;;;10477090;28;20103;-80
2024/03/18 09:22:32;;;;;;;12.15;9.15;;;;;;;;;;10475096;28;20171;-79
2024/03/18 09:27:33;;;;;;;10.48;8.77;;;;;;;;;;10472905;28;20017;-79
2024/03/18 09:32:34;;;;;;;7.10;5.57;;;;;;;;;;10470613;28;20028;-80
2024/03/18 09:37:36;;;;;;;8.63;6.45;;;;;;;;;;10471445;28;20040;-80
2024/03/18 09:42:38;;;;;;;6.43;4.35;;;;;;;;;;10473727;28;20075;-81
2024/03/18 09:47:41;;;;;;;7.47;5.65;;;;;;;;;;10473643;28;20024;-80
2024/03/18 09:52:46;;;;;;;5.75;4.55;;;;;;;;;;10475025;28;20035;-79
2024/03/18 09:57:48;;;;;;;5.00;3.10;;;;;;;;;;10478684;28;20400;-81
2024/03/18 10:02:49;;;;;;;8.38;5.40;;;;;;;;;;10483928;28;20032;-79
2024/03/18 10:07:55;;;;;;;9.98;7.25;;;;;;;;;;10490240;28;20039;-80
2024/03/18 10:12:56;;;;;;;10.27;6.90;;;;;;;;;;10474358;28;20083;-80
2024/03/18 10:17:57;;;;;;;8.63;6.40;;;;;;;;;;10470923;28;20091;-80
2024/03/18 10:22:59;;;;;;;11.45;7.63;;;;;;;;;;10468735;28;20025;-80
2024/03/18 10:28:04;;;;;;;9.50;7.85;;;;;;;;;;10464932;28;20041;-80
2024/03/18 10:33:06;;;;;;;9.35;7.32;;;;;;;;;;10465979;28;20025;-80
2024/03/18 10:38:08;;;;;;;9.68;8.35;;;;;;;;;;10468644;28;20497;-80
2024/03/18 10:43:09;;;;;;;9.73;8.60;;;;;;;;;;10467375;28;20052;-81
2024/03/18 10:48:14;;;;;;;10.57;8.20;;;;;;;;;;10484861;28;20055;-82
2024/03/18 10:53:18;;;;;;;12.35;7.97;;;;;;;;;;10505951;28;20025;-81
2024/03/18 10:58:24;;;;;;;12.30;9.20;;;;;;;;;;10498191;28;20025;-80
2024/03/18 11:03:25;;;;;;;11.07;9.02;;;;;;;;;;10465018;28;20028;-81
2024/03/18 11:08:27;;;;;;;11.23;7.85;;;;;;;;;;10487809;28;20051;-83
2024/03/18 11:13:32;;;;;;;12.77;7.72;;;;;;;;;;10480970;28;20033;-80
2024/03/18 11:18:35;;;;;;;9.85;6.72;;;;;;;;;;10472855;28;20126;-81
2024/03/18 11:23:36;;;;;;;9.23;6.68;;;;;;;;;;10463592;28;20021;-81
2024/03/18 11:28:45;;;;;;;6.20;5.30;;;;;;;;;;10469629;28;20388;-81
2024/03/18 11:33:47;;;;;;;22.15;18.65;;;;;;;;;;10471736;28;20130;-81
2024/03/18 11:38:49;;;;;;;6.18;5.07;;;;;;;;;;10470846;28;20036;-81
2024/03/18 11:43:50;;;;;;;5.50;4.18;;;;;;;;;;10467639;28;20021;-81
2024/03/18 11:49:01;;;;;;;5.95;4.45;;;;;;;;;;10476105;28;20477;-81
2024/03/18 11:54:05;;;;;;;;;;;;;;;;;;10469259;28;20384;-81
2024/03/18 11:59:06;;;;;;;5.88;4.43;;;;;;;;;;10467513;28;19909;-81
2024/03/18 12:04:07;;;;;;;6.63;4.40;;;;;;;;;;10470513;28;20029;-82
2024/03/18 12:09:11;;;;;;;5.65;4.80;;;;;;;;;;10467877;28;20104;-81
2024/03/18 12:14:12;;;;;;;5.82;4.80;;;;;;;;;;10486927;28;20021;-80
2024/03/18 12:19:13;;;;;;;7.03;4.40;;;;;;;;;;10488038;28;20092;-80
2024/03/18 12:29:35;;;;;;;6.28;3.72;;;;;;;;;;10476052;28;20433;-81
2024/03/18 12:34:36;;;;;;;5.15;3.92;;;;;;;;;;10473066;28;20119;-81
2024/03/18 12:39:37;;;;;;;4.95;3.83;;;;;;;;;;10470537;28;20069;-80
2024/03/18 12:44:38;;;;;;;4.80;4.03;;;;;;;;;;10473872;28;20017;-80
2024/03/18 12:49:39;;;;;;;12.05;9.00;;;;;;;;;;10470320;28;20025;-81
2024/03/18 12:54:40;;;;;;;5.30;4.15;;;;;;;;;;10469697;28;20029;-81
2024/03/18 12:59:41;;;;;;;5.18;4.05;;;;;;;;;;10471735;28;20092;-81
2024/03/18 13:04:42;;;;;;;5.20;3.90;;;;;;;;;;10470021;28;20052;-81
2024/03/18 13:09:46;;;;;;;4.78;4.03;;;;;;;;;;10468560;28;20043;-80
2024/03/18 13:14:47;;;;;;;6.25;4.60;;;;;;;;;;10472780;28;20032;-79
2024/03/18 13:19:49;;;;;;;6.03;4.80;;;;;;;;;;10466743;28;20481;-80
2024/03/18 13:24:52;;;;;;;6.38;4.63;;;;;;;;;;10467326;28;20025;-79
2024/03/18 13:29:53;;;;;;;5.10;4.53;;;;;;;;;;10466891;28;20024;-80
2024/03/18 13:34:54;;;;;;;7.30;4.95;;;;;;;;;;10465727;28;20091;-79
2024/03/18 13:39:55;;;;;;;6.13;4.70;;;;;;;;;;10465137;28;20029;-80
2024/03/18 13:44:58;;;;;;;4.93;4.07;;;;;;;;;;10466276;28;20311;-80
2024/03/18 13:49:59;;;;;;;7.93;6.40;;;;;;;;;;10465085;28;20025;-80
2024/03/18 13:55:03;;;;;;;6.38;5.43;;;;;;;;;;10465790;28;20247;-78
2024/03/18 14:00:06;;;;;;;6.10;4.50;;;;;;;;;;10467817;28;20167;-79
2024/03/18 14:05:08;;;;;;;5.95;5.30;;;;;;;;;;10468765;28;20469;-79
2024/03/18 14:10:09;;;;;;;8.45;7.13;;;;;;;;;;10468868;28;20116;-79
2024/03/18 14:15:30;;;;;;;9.48;7.50;;;;;;;;;;10445162;22;20056;-86
2024/03/18 14:20:57;;;;;;;10.93;7.30;;;;;;;;;;10382651;28;20038;-84
2024/03/18 14:32:01;;;;;;;7.65;6.07;;;;;;;;;;10383589;28;20034;-83
2024/03/18 14:43:05;;;;;;;11.85;9.15;;;;;;;;;;10339186;28;20034;-84
2024/03/18 14:48:43;;;;;;;10.95;8.13;;;;;;;;;;10337432;28;20027;-83
2024/03/18 15:00:12;;;;;;;7.43;5.68;;;;;;;;;;10261411;28;20031;-84
2024/03/18 15:05:50;;;;;;;8.57;6.68;;;;;;;;;;10283297;28;20025;-83
2024/03/18 15:10:52;;;;;;;10.38;7.32;;;;;;;;;;10379962;28;20053;-83
2024/03/18 15:22:07;;;;;;;8.63;6.53;;;;;;;;;;10385791;28;20041;-82
2024/03/18 15:27:56;;;;;;;6.78;4.75;;;;;;;;;;10397814;28;20057;-84
2024/03/18 15:32:57;;;;;;;6.78;4.43;;;;;;;;;;10364216;28;20057;-83
2024/03/18 15:37:59;;;;;;;5.28;4.18;;;;;;;;;;10395028;28;20038;-83
2024/03/18 15:55:01;;;;;;;4.95;3.58;;;;;;;;;;10310290;28;20034;-84
2024/03/18 16:06:18;;;;;;;6.95;4.07;;;;;;;;;;10321042;28;20041;-83
2024/03/18 16:11:39;;;;;;;4.68;3.78;;;;;;;;;;10388497;28;20040;-83
2024/03/18 16:17:13;;;;;;;4.57;3.22;;;;;;;;;;10386083;28;20022;-83
2024/03/18 16:28:22;;;;;;;4.05;3.22;;;;;;;;;;10395850;28;20366;-83
2024/03/18 16:34:18;;;;;;;5.18;3.58;;;;;;;;;;10395093;28;20046;-83
2024/03/18 16:45:13;;;;;;;6.07;3.92;;;;;;;;;;10390060;28;20025;-83
2024/03/18 17:02:10;;;;;;;6.25;3.60;;;;;;;;;;10217051;29;20032;-84
2024/03/18 17:07:44;;;;;;;6.50;3.78;;;;;;;;;;10134937;29;20120;-83
2024/03/18 17:19:28;;;;;;;4.95;3.25;;;;;;;;;;10154628;29;20040;-82
2024/03/18 17:30:10;;;;;;;4.63;2.90;;;;;;;;;;10330836;28;20029;-81
2024/03/18 17:35:27;;;;;;;4.22;3.00;;;;;;;;;;10372539;28;20041;-84
2024/03/18 17:41:15;;;;;;;4.70;3.10;;;;;;;;;;10412422;28;20115;-83
2024/03/18 17:53:11;;;;;;;5.63;3.10;;;;;;;;;;10217518;29;20036;-84
2024/03/18 17:58:30;;;;;;;4.45;3.10;;;;;;;;;;10202050;29;20035;-85
2024/03/18 18:03:51;;;;;;;4.65;3.00;;;;;;;;;;10252069;29;20546;-84
2024/03/18 18:08:52;;;;;;;5.72;3.10;;;;;;;;;;10256051;29;20031;-85
2024/03/18 18:14:50;;;;;;;4.65;2.92;;;;;;;;;;10312706;28;20029;-86
2024/03/18 18:19:54;;;;;;;4.63;3.13;;;;;;;;;;10406782;28;20021;-85
2024/03/18 18:25:23;;;;;;;4.70;3.42;;;;;;;;;;10401395;28;20078;-86
2024/03/18 18:31:04;;;;;;;4.53;2.75;;;;;;;;;;10400891;28;20477;-85
2024/03/18 18:36:48;;;;;;;4.05;2.78;;;;;;;;;;10399041;28;20108;-85
2024/03/18 18:42:23;;;;;;;9.73;5.22;;;;;;;;;;10336502;28;20054;-85
2024/03/18 18:47:45;;;;;;;5.95;3.33;;;;;;;;;;10318617;28;20047;-85
2024/03/18 18:53:15;;;;;;;4.00;2.92;;;;;;;;;;10334900;28;20045;-86
2024/03/18 18:59:04;;;;;;;8.03;4.10;;;;;;;;;;10319857;28;20058;-85
2024/03/18 19:04:30;;;;;;;8.15;4.80;;;;;;;;;;10335002;28;20125;-86
2024/03/18 19:09:46;;;;;;;7.10;4.72;;;;;;;;;;10320631;28;20035;-85
2024/03/18 19:20:29;;;;;;;3.75;2.60;;;;;;;;;;10418500;28;20042;-86
2024/03/18 19:25:55;;;;;;;7.20;4.90;;;;;;;;;;10452674;28;20037;-85
2024/03/18 19:31:17;;;;;;;6.25;3.70;;;;;;;;;;10345521;28;20037;-84
2024/03/18 19:42:02;;;;;;;6.85;4.13;;;;;;;;;;10424604;28;20354;-86
2024/03/18 19:53:31;;;;;;;5.43;3.83;;;;;;;;;;10425163;28;20033;-86
2024/03/18 19:59:26;;;;;;;8.07;6.00;;;;;;;;;;10411407;28;20392;-86
2024/03/18 20:05:15;;;;;;;4.97;3.90;;;;;;;;;;10409417;28;20029;-86
